sensor_id;sensor_type;location;lat;lon;timestamp;temperature;humidity
60495;DHT22;46342;49.046;11.920;2023-04-25T00:02:02;11.10;53.30
60495;DHT22;46342;49.046;11.920;2023-04-25T00:04:29;11.10;53.30
60495;DHT22;46342;49.046;11.920;2023-04-25T00:06:55;11.00;53.30
60495;DHT22;46342;49.046;11.920;2023-04-25T00:09:21;11.00;53.30
60495;DHT22;46342;49.046;11.920;2023-04-25T00:11:47;11.00;53.30
60495;DHT22;46342;49.046;11.920;2023-04-25T00:14:13;11.00;53.30
60495;DHT22;46342;49.046;11.920;2023-04-25T00:16:39;11.00;53.40
60495;DHT22;46342;49.046;11.920;2023-04-25T00:19:06;11.00;53.40
60495;DHT22;46342;49.046;11.920;2023-04-25T00:21:33;11.00;53.40
60495;DHT22;46342;49.046;11.920;2023-04-25T00:23:59;10.90;53.30
60495;DHT22;46342;49.046;11.920;2023-04-25T00:26:24;10.90;53.30
60495;DHT22;46342;49.046;11.920;2023-04-25T00:28:50;10.90;53.30
60495;DHT22;46342;49.046;11.920;2023-04-25T00:31:16;10.90;53.30
60495;DHT22;46342;49.046;11.920;2023-04-25T00:33:41;10.90;53.40
60495;DHT22;46342;49.046;11.920;2023-04-25T00:36:07;10.90;53.40
60495;DHT22;46342;49.046;11.920;2023-04-25T00:38:33;10.80;53.40
60495;DHT22;46342;49.046;11.920;2023-04-25T00:40:59;10.80;53.40
60495;DHT22;46342;49.046;11.920;2023-04-25T00:43:28;10.80;53.40
60495;DHT22;46342;49.046;11.920;2023-04-25T00:45:56;10.80;53.60
60495;DHT22;46342;49.046;11.920;2023-04-25T00:48:23;10.80;53.50
60495;DHT22;46342;49.046;11.920;2023-04-25T00:50:53;10.70;53.30
60495;DHT22;46342;49.046;11.920;2023-04-25T00:53:22;10.80;54.30
60495;DHT22;46342;49.046;11.920;2023-04-25T00:55:49;10.70;53.50
60495;DHT22;46342;49.046;11.920;2023-04-25T00:58:17;10.70;53.50
60495;DHT22;46342;49.046;11.920;2023-04-25T01:00:44;10.70;53.50
60495;DHT22;46342;49.046;11.920;2023-04-25T01:03:10;10.80;53.60
60495;DHT22;46342;49.046;11.920;2023-04-25T01:05:36;10.70;53.50
60495;DHT22;46342;49.046;11.920;2023-04-25T01:08:02;10.70;53.50
60495;DHT22;46342;49.046;11.920;2023-04-25T01:10:27;10.70;53.60
60495;DHT22;46342;49.046;11.920;2023-04-25T01:12:53;10.60;53.50
60495;DHT22;46342;49.046;11.920;2023-04-25T01:15:18;10.60;53.50
60495;DHT22;46342;49.046;11.920;2023-04-25T01:17:44;10.60;53.60
60495;DHT22;46342;49.046;11.920;2023-04-25T01:20:11;10.60;53.60
60495;DHT22;46342;49.046;11.920;2023-04-25T01:22:37;10.60;53.60
60495;DHT22;46342;49.046;11.920;2023-04-25T01:25:03;10.60;53.60
60495;DHT22;46342;49.046;11.920;2023-04-25T01:27:30;10.60;53.70
60495;DHT22;46342;49.046;11.920;2023-04-25T01:29:56;10.60;53.70
60495;DHT22;46342;49.046;11.920;2023-04-25T01:32:22;10.50;53.60
60495;DHT22;46342;49.046;11.920;2023-04-25T01:34:49;10.50;53.70
60495;DHT22;46342;49.046;11.920;2023-04-25T01:37:14;10.50;53.70
60495;DHT22;46342;49.046;11.920;2023-04-25T01:39:41;10.50;53.70
60495;DHT22;46342;49.046;11.920;2023-04-25T01:42:07;10.50;54.30
60495;DHT22;46342;49.046;11.920;2023-04-25T01:44:33;10.50;53.80
60495;DHT22;46342;49.046;11.920;2023-04-25T01:46:58;10.50;53.80
60495;DHT22;46342;49.046;11.920;2023-04-25T01:49:24;10.50;53.80
60495;DHT22;46342;49.046;11.920;2023-04-25T01:51:50;10.50;53.80
60495;DHT22;46342;49.046;11.920;2023-04-25T01:54:15;10.40;53.80
60495;DHT22;46342;49.046;11.920;2023-04-25T01:56:41;10.50;53.90
60495;DHT22;46342;49.046;11.920;2023-04-25T01:59:07;10.40;53.80
60495;DHT22;46342;49.046;11.920;2023-04-25T02:01:34;10.40;53.80
60495;DHT22;46342;49.046;11.920;2023-04-25T02:03:59;10.40;54.40
60495;DHT22;46342;49.046;11.920;2023-04-25T02:06:25;10.40;53.80
60495;DHT22;46342;49.046;11.920;2023-04-25T02:08:50;10.40;53.80
60495;DHT22;46342;49.046;11.920;2023-04-25T02:11:16;10.40;53.90
60495;DHT22;46342;49.046;11.920;2023-04-25T02:13:41;10.40;53.90
60495;DHT22;46342;49.046;11.920;2023-04-25T02:16:07;10.40;54.00
60495;DHT22;46342;49.046;11.920;2023-04-25T02:18:32;10.40;54.00
60495;DHT22;46342;49.046;11.920;2023-04-25T02:20:59;10.40;54.00
60495;DHT22;46342;49.046;11.920;2023-04-25T02:23:25;10.30;54.00
60495;DHT22;46342;49.046;11.920;2023-04-25T02:25:51;10.40;54.00
60495;DHT22;46342;49.046;11.920;2023-04-25T02:28:17;10.30;54.00
60495;DHT22;46342;49.046;11.920;2023-04-25T02:30:42;10.30;54.00
60495;DHT22;46342;49.046;11.920;2023-04-25T02:33:08;10.30;54.00
60495;DHT22;46342;49.046;11.920;2023-04-25T02:35:33;10.30;54.00
60495;DHT22;46342;49.046;11.920;2023-04-25T02:37:59;10.30;54.00
60495;DHT22;46342;49.046;11.920;2023-04-25T02:40:25;10.30;54.00
60495;DHT22;46342;49.046;11.920;2023-04-25T02:42:50;10.30;54.00
60495;DHT22;46342;49.046;11.920;2023-04-25T02:45:16;10.30;54.10
60495;DHT22;46342;49.046;11.920;2023-04-25T02:47:42;10.30;54.10
60495;DHT22;46342;49.046;11.920;2023-04-25T02:50:08;10.30;54.10
60495;DHT22;46342;49.046;11.920;2023-04-25T02:52:33;10.30;54.20
60495;DHT22;46342;49.046;11.920;2023-04-25T02:54:59;10.30;54.20
60495;DHT22;46342;49.046;11.920;2023-04-25T02:57:24;10.30;54.20
60495;DHT22;46342;49.046;11.920;2023-04-25T02:59:50;10.30;54.20
60495;DHT22;46342;49.046;11.920;2023-04-25T03:02:15;10.20;54.10
60495;DHT22;46342;49.046;11.920;2023-04-25T03:04:41;10.30;54.20
60495;DHT22;46342;49.046;11.920;2023-04-25T03:07:07;10.30;54.30
60495;DHT22;46342;49.046;11.920;2023-04-25T03:09:32;10.30;54.30
60495;DHT22;46342;49.046;11.920;2023-04-25T03:11:58;10.20;54.20
60495;DHT22;46342;49.046;11.920;2023-04-25T03:14:23;10.20;54.20
60495;DHT22;46342;49.046;11.920;2023-04-25T03:16:49;10.20;54.20
60495;DHT22;46342;49.046;11.920;2023-04-25T03:19:15;10.20;54.20
60495;DHT22;46342;49.046;11.920;2023-04-25T03:21:44;10.20;54.30
60495;DHT22;46342;49.046;11.920;2023-04-25T03:24:10;10.20;54.30
60495;DHT22;46342;49.046;11.920;2023-04-25T03:26:36;10.20;54.30
60495;DHT22;46342;49.046;11.920;2023-04-25T03:29:02;10.20;54.30
60495;DHT22;46342;49.046;11.920;2023-04-25T03:31:27;10.20;54.90
60495;DHT22;46342;49.046;11.920;2023-04-25T03:33:53;10.20;54.30
60495;DHT22;46342;49.046;11.920;2023-04-25T03:36:18;10.20;54.40
60495;DHT22;46342;49.046;11.920;2023-04-25T03:38:44;10.20;54.40
60495;DHT22;46342;49.046;11.920;2023-04-25T03:41:10;10.20;54.40
60495;DHT22;46342;49.046;11.920;2023-04-25T03:43:35;10.20;54.40
60495;DHT22;46342;49.046;11.920;2023-04-25T03:46:01;10.20;55.00
60495;DHT22;46342;49.046;11.920;2023-04-25T03:48:27;10.20;54.40
60495;DHT22;46342;49.046;11.920;2023-04-25T03:50:53;10.20;54.40
60495;DHT22;46342;49.046;11.920;2023-04-25T03:53:19;10.20;54.40
60495;DHT22;46342;49.046;11.920;2023-04-25T03:55:45;10.20;55.00
60495;DHT22;46342;49.046;11.920;2023-04-25T03:58:10;10.20;54.50
60495;DHT22;46342;49.046;11.920;2023-04-25T04:00:36;10.20;54.50
60495;DHT22;46342;49.046;11.920;2023-04-25T04:03:02;10.10;54.40
60495;DHT22;46342;49.046;11.920;2023-04-25T04:05:27;10.20;54.50
60495;DHT22;46342;49.046;11.920;2023-04-25T04:07:54;10.20;54.60
60495;DHT22;46342;49.046;11.920;2023-04-25T04:10:20;10.10;54.50
60495;DHT22;46342;49.046;11.920;2023-04-25T04:12:46;10.10;54.50
60495;DHT22;46342;49.046;11.920;2023-04-25T04:15:11;10.10;54.50
60495;DHT22;46342;49.046;11.920;2023-04-25T04:17:37;10.20;54.60
60495;DHT22;46342;49.046;11.920;2023-04-25T04:20:03;10.20;54.60
60495;DHT22;46342;49.046;11.920;2023-04-25T04:22:29;10.20;54.70
60495;DHT22;46342;49.046;11.920;2023-04-25T04:24:55;10.20;54.70
60495;DHT22;46342;49.046;11.920;2023-04-25T04:27:22;10.20;54.70
60495;DHT22;46342;49.046;11.920;2023-04-25T04:29:48;10.20;54.70
60495;DHT22;46342;49.046;11.920;2023-04-25T04:32:15;10.20;54.70
60495;DHT22;46342;49.046;11.920;2023-04-25T04:34:41;10.20;54.70
60495;DHT22;46342;49.046;11.920;2023-04-25T04:37:06;10.20;54.70
60495;DHT22;46342;49.046;11.920;2023-04-25T04:39:33;10.20;54.70
60495;DHT22;46342;49.046;11.920;2023-04-25T04:41:58;10.20;55.40
60495;DHT22;46342;49.046;11.920;2023-04-25T04:44:24;10.30;54.80
60495;DHT22;46342;49.046;11.920;2023-04-25T04:46:50;10.20;54.70
60495;DHT22;46342;49.046;11.920;2023-04-25T04:49:16;10.20;54.70
60495;DHT22;46342;49.046;11.920;2023-04-25T04:51:42;10.20;54.70
60495;DHT22;46342;49.046;11.920;2023-04-25T04:54:12;10.20;54.70
60495;DHT22;46342;49.046;11.920;2023-04-25T04:56:37;10.20;54.70
60495;DHT22;46342;49.046;11.920;2023-04-25T04:59:03;10.20;54.70
60495;DHT22;46342;49.046;11.920;2023-04-25T05:01:29;10.20;54.70
60495;DHT22;46342;49.046;11.920;2023-04-25T05:03:56;10.10;54.60
60495;DHT22;46342;49.046;11.920;2023-04-25T05:06:26;10.10;54.70
60495;DHT22;46342;49.046;11.920;2023-04-25T05:08:52;10.10;54.70
60495;DHT22;46342;49.046;11.920;2023-04-25T05:11:18;10.20;54.70
60495;DHT22;46342;49.046;11.920;2023-04-25T05:13:44;10.10;54.70
60495;DHT22;46342;49.046;11.920;2023-04-25T05:16:11;10.10;54.80
60495;DHT22;46342;49.046;11.920;2023-04-25T05:18:37;10.10;54.80
60495;DHT22;46342;49.046;11.920;2023-04-25T05:21:03;10.10;54.90
60495;DHT22;46342;49.046;11.920;2023-04-25T05:23:28;10.10;54.90
60495;DHT22;46342;49.046;11.920;2023-04-25T05:25:56;10.10;54.90
60495;DHT22;46342;49.046;11.920;2023-04-25T05:28:21;10.10;55.00
60495;DHT22;46342;49.046;11.920;2023-04-25T05:30:47;10.10;55.00
60495;DHT22;46342;49.046;11.920;2023-04-25T05:33:13;10.10;55.10
60495;DHT22;46342;49.046;11.920;2023-04-25T05:35:38;10.10;55.10
60495;DHT22;46342;49.046;11.920;2023-04-25T05:38:04;10.10;55.20
60495;DHT22;46342;49.046;11.920;2023-04-25T05:40:30;10.10;55.20
60495;DHT22;46342;49.046;11.920;2023-04-25T05:42:55;10.20;55.30
60495;DHT22;46342;49.046;11.920;2023-04-25T05:45:21;10.20;55.30
60495;DHT22;46342;49.046;11.920;2023-04-25T05:47:46;10.20;55.30
60495;DHT22;46342;49.046;11.920;2023-04-25T05:50:12;10.20;55.30
60495;DHT22;46342;49.046;11.920;2023-04-25T05:52:37;10.30;55.40
60495;DHT22;46342;49.046;11.920;2023-04-25T05:55:04;10.30;55.40
60495;DHT22;46342;49.046;11.920;2023-04-25T05:57:29;10.30;55.50
60495;DHT22;46342;49.046;11.920;2023-04-25T05:59:55;10.40;55.60
60495;DHT22;46342;49.046;11.920;2023-04-25T06:02:21;10.40;55.60
60495;DHT22;46342;49.046;11.920;2023-04-25T06:04:49;10.50;55.70
60495;DHT22;46342;49.046;11.920;2023-04-25T06:07:15;10.50;55.70
60495;DHT22;46342;49.046;11.920;2023-04-25T06:09:40;10.60;55.70
60495;DHT22;46342;49.046;11.920;2023-04-25T06:12:06;10.60;55.70
60495;DHT22;46342;49.046;11.920;2023-04-25T06:14:33;10.60;55.70
60495;DHT22;46342;49.046;11.920;2023-04-25T06:16:58;10.70;55.80
60495;DHT22;46342;49.046;11.920;2023-04-25T06:19:24;10.70;55.70
60495;DHT22;46342;49.046;11.920;2023-04-25T06:21:49;10.80;55.80
60495;DHT22;46342;49.046;11.920;2023-04-25T06:24:15;10.80;55.70
60495;DHT22;46342;49.046;11.920;2023-04-25T06:26:41;10.90;55.80
60495;DHT22;46342;49.046;11.920;2023-04-25T06:29:06;10.90;55.80
60495;DHT22;46342;49.046;11.920;2023-04-25T06:31:32;10.90;55.80
60495;DHT22;46342;49.046;11.920;2023-04-25T06:33:59;11.00;55.80
60495;DHT22;46342;49.046;11.920;2023-04-25T06:36:24;11.10;55.80
60495;DHT22;46342;49.046;11.920;2023-04-25T06:38:53;11.10;55.70
60495;DHT22;46342;49.046;11.920;2023-04-25T06:41:19;11.20;55.70
60495;DHT22;46342;49.046;11.920;2023-04-25T06:43:45;11.20;56.20
60495;DHT22;46342;49.046;11.920;2023-04-25T06:46:11;11.20;55.50
60495;DHT22;46342;49.046;11.920;2023-04-25T06:48:37;11.30;55.60
60495;DHT22;46342;49.046;11.920;2023-04-25T06:51:02;11.30;55.50
60495;DHT22;46342;49.046;11.920;2023-04-25T06:53:28;11.40;55.60
60495;DHT22;46342;49.046;11.920;2023-04-25T06:55:54;11.40;55.50
60495;DHT22;46342;49.046;11.920;2023-04-25T06:58:19;11.50;55.50
60495;DHT22;46342;49.046;11.920;2023-04-25T07:00:45;11.50;55.40
60495;DHT22;46342;49.046;11.920;2023-04-25T07:03:10;11.60;55.40
60495;DHT22;46342;49.046;11.920;2023-04-25T07:05:36;11.60;55.30
60495;DHT22;46342;49.046;11.920;2023-04-25T07:08:01;11.70;55.40
60495;DHT22;46342;49.046;11.920;2023-04-25T07:10:28;11.70;55.40
60495;DHT22;46342;49.046;11.920;2023-04-25T07:12:53;11.80;55.50
60495;DHT22;46342;49.046;11.920;2023-04-25T07:15:19;11.90;55.60
60495;DHT22;46342;49.046;11.920;2023-04-25T07:17:45;12.00;55.50
60495;DHT22;46342;49.046;11.920;2023-04-25T07:20:10;12.00;55.30
60495;DHT22;46342;49.046;11.920;2023-04-25T07:22:36;12.10;55.30
60495;DHT22;46342;49.046;11.920;2023-04-25T07:25:02;12.20;55.20
60495;DHT22;46342;49.046;11.920;2023-04-25T07:27:29;12.20;55.00
60495;DHT22;46342;49.046;11.920;2023-04-25T07:29:55;12.30;54.90
60495;DHT22;46342;49.046;11.920;2023-04-25T07:32:20;12.30;54.90
60495;DHT22;46342;49.046;11.920;2023-04-25T07:34:46;12.40;54.80
60495;DHT22;46342;49.046;11.920;2023-04-25T07:37:11;12.40;54.70
60495;DHT22;46342;49.046;11.920;2023-04-25T07:39:37;12.50;54.70
60495;DHT22;46342;49.046;11.920;2023-04-25T07:42:03;12.60;55.20
60495;DHT22;46342;49.046;11.920;2023-04-25T07:44:29;12.60;54.50
60495;DHT22;46342;49.046;11.920;2023-04-25T07:46:56;12.60;54.20
60495;DHT22;46342;49.046;11.920;2023-04-25T07:49:21;12.80;54.20
60495;DHT22;46342;49.046;11.920;2023-04-25T07:51:47;12.70;54.20
60495;DHT22;46342;49.046;11.920;2023-04-25T07:54:14;12.70;54.30
60495;DHT22;46342;49.046;11.920;2023-04-25T07:56:40;12.80;54.50
60495;DHT22;46342;49.046;11.920;2023-04-25T07:59:06;12.90;54.70
60495;DHT22;46342;49.046;11.920;2023-04-25T08:01:31;13.00;54.60
60495;DHT22;46342;49.046;11.920;2023-04-25T08:03:57;13.10;54.50
60495;DHT22;46342;49.046;11.920;2023-04-25T08:06:23;13.20;54.40
60495;DHT22;46342;49.046;11.920;2023-04-25T08:08:48;13.30;54.00
60495;DHT22;46342;49.046;11.920;2023-04-25T08:11:14;13.40;54.00
60495;DHT22;46342;49.046;11.920;2023-04-25T08:13:39;13.50;54.00
60495;DHT22;46342;49.046;11.920;2023-04-25T08:16:05;13.50;54.00
60495;DHT22;46342;49.046;11.920;2023-04-25T08:18:30;13.60;54.10
60495;DHT22;46342;49.046;11.920;2023-04-25T08:20:56;13.70;54.10
60495;DHT22;46342;49.046;11.920;2023-04-25T08:23:22;13.80;54.00
60495;DHT22;46342;49.046;11.920;2023-04-25T08:25:47;13.80;54.10
60495;DHT22;46342;49.046;11.920;2023-04-25T08:28:13;14.00;54.40
60495;DHT22;46342;49.046;11.920;2023-04-25T08:30:40;14.20;54.50
60495;DHT22;46342;49.046;11.920;2023-04-25T08:33:06;14.20;54.30
60495;DHT22;46342;49.046;11.920;2023-04-25T08:35:31;14.40;54.20
60495;DHT22;46342;49.046;11.920;2023-04-25T08:37:58;14.50;54.10
60495;DHT22;46342;49.046;11.920;2023-04-25T08:40:27;14.60;54.10
60495;DHT22;46342;49.046;11.920;2023-04-25T08:42:57;14.70;53.70
60495;DHT22;46342;49.046;11.920;2023-04-25T08:45:23;14.90;53.80
60495;DHT22;46342;49.046;11.920;2023-04-25T08:47:52;15.00;53.70
60495;DHT22;46342;49.046;11.920;2023-04-25T08:50:18;15.20;53.20
60495;DHT22;46342;49.046;11.920;2023-04-25T08:52:47;15.20;52.80
60495;DHT22;46342;49.046;11.920;2023-04-25T08:55:13;15.30;53.30
60495;DHT22;46342;49.046;11.920;2023-04-25T08:57:41;15.30;53.10
60495;DHT22;46342;49.046;11.920;2023-04-25T09:00:09;15.30;52.90
60495;DHT22;46342;49.046;11.920;2023-04-25T09:02:35;15.30;52.80
60495;DHT22;46342;49.046;11.920;2023-04-25T09:05:02;15.20;52.60
60495;DHT22;46342;49.046;11.920;2023-04-25T09:07:29;15.10;52.30
60495;DHT22;46342;49.046;11.920;2023-04-25T09:09:55;15.00;52.30
60495;DHT22;46342;49.046;11.920;2023-04-25T09:12:21;15.00;52.30
60495;DHT22;46342;49.046;11.920;2023-04-25T09:15:15;14.90;52.20
60495;DHT22;46342;49.046;11.920;2023-04-25T09:17:41;14.80;52.00
60495;DHT22;46342;49.046;11.920;2023-04-25T09:20:10;14.70;52.10
60495;DHT22;46342;49.046;11.920;2023-04-25T09:22:36;14.70;52.00
60495;DHT22;46342;49.046;11.920;2023-04-25T09:25:12;14.40;51.90
60495;DHT22;46342;49.046;11.920;2023-04-25T09:27:50;14.50;52.10
60495;DHT22;46342;49.046;11.920;2023-04-25T09:30:17;14.40;52.10
60495;DHT22;46342;49.046;11.920;2023-04-25T09:32:43;14.20;52.20
60495;DHT22;46342;49.046;11.920;2023-04-25T09:35:09;14.20;52.30
60495;DHT22;46342;49.046;11.920;2023-04-25T09:37:38;14.10;52.50
60495;DHT22;46342;49.046;11.920;2023-04-25T09:40:06;14.10;52.70
60495;DHT22;46342;49.046;11.920;2023-04-25T09:42:33;14.00;52.60
60495;DHT22;46342;49.046;11.920;2023-04-25T09:45:01;14.00;52.60
60495;DHT22;46342;49.046;11.920;2023-04-25T09:47:27;14.00;52.70
60495;DHT22;46342;49.046;11.920;2023-04-25T09:49:54;14.00;52.60
60495;DHT22;46342;49.046;11.920;2023-04-25T09:52:24;14.00;52.70
60495;DHT22;46342;49.046;11.920;2023-04-25T09:54:50;13.90;52.50
60495;DHT22;46342;49.046;11.920;2023-04-25T09:57:22;13.90;53.20
60495;DHT22;46342;49.046;11.920;2023-04-25T09:59:54;13.90;52.80
60495;DHT22;46342;49.046;11.920;2023-04-25T10:02:23;13.90;52.80
60495;DHT22;46342;49.046;11.920;2023-04-25T10:04:50;14.00;53.10
60495;DHT22;46342;49.046;11.920;2023-04-25T10:07:18;14.10;53.30
60495;DHT22;46342;49.046;11.920;2023-04-25T10:09:47;14.10;53.30
60495;DHT22;46342;49.046;11.920;2023-04-25T10:12:13;14.20;52.90
60495;DHT22;46342;49.046;11.920;2023-04-25T10:14:40;14.30;52.80
60495;DHT22;46342;49.046;11.920;2023-04-25T10:17:07;14.30;52.60
60495;DHT22;46342;49.046;11.920;2023-04-25T10:19:35;14.30;52.60
60495;DHT22;46342;49.046;11.920;2023-04-25T10:22:20;14.30;52.40
60495;DHT22;46342;49.046;11.920;2023-04-25T10:24:48;14.30;52.20
60495;DHT22;46342;49.046;11.920;2023-04-25T10:27:15;14.40;52.20
60495;DHT22;46342;49.046;11.920;2023-04-25T10:29:41;14.20;52.70
60495;DHT22;46342;49.046;11.920;2023-04-25T10:32:08;14.20;52.10
60495;DHT22;46342;49.046;11.920;2023-04-25T10:34:43;14.10;52.20
60495;DHT22;46342;49.046;11.920;2023-04-25T10:37:12;14.20;52.00
60495;DHT22;46342;49.046;11.920;2023-04-25T10:39:39;14.20;51.60
60495;DHT22;46342;49.046;11.920;2023-04-25T10:42:05;14.20;52.30
60495;DHT22;46342;49.046;11.920;2023-04-25T10:44:33;14.20;53.00
60495;DHT22;46342;49.046;11.920;2023-04-25T10:47:00;14.30;52.60
60495;DHT22;46342;49.046;11.920;2023-04-25T10:49:37;14.30;52.80
60495;DHT22;46342;49.046;11.920;2023-04-25T10:54:55;14.60;52.00
60495;DHT22;46342;49.046;11.920;2023-04-25T10:57:30;14.70;53.20
60495;DHT22;46342;49.046;11.920;2023-04-25T11:02:40;15.00;51.70
60495;DHT22;46342;49.046;11.920;2023-04-25T11:05:06;15.20;52.60
60495;DHT22;46342;49.046;11.920;2023-04-25T11:07:51;15.30;52.20
60495;DHT22;46342;49.046;11.920;2023-04-25T11:10:17;15.40;49.80
60495;DHT22;46342;49.046;11.920;2023-04-25T11:12:45;15.40;51.70
60495;DHT22;46342;49.046;11.920;2023-04-25T11:15:11;15.50;51.50
60495;DHT22;46342;49.046;11.920;2023-04-25T11:17:37;15.50;51.70
60495;DHT22;46342;49.046;11.920;2023-04-25T11:20:05;15.60;51.70
60495;DHT22;46342;49.046;11.920;2023-04-25T11:22:38;15.70;51.50
60495;DHT22;46342;49.046;11.920;2023-04-25T11:25:10;15.80;51.10
60495;DHT22;46342;49.046;11.920;2023-04-25T11:27:49;15.80;51.10
60495;DHT22;46342;49.046;11.920;2023-04-25T11:30:16;16.00;50.10
60495;DHT22;46342;49.046;11.920;2023-04-25T11:32:42;16.00;51.10
60495;DHT22;46342;49.046;11.920;2023-04-25T11:35:09;16.10;51.00
60495;DHT22;46342;49.046;11.920;2023-04-25T11:37:35;16.20;50.80
60495;DHT22;46342;49.046;11.920;2023-04-25T11:40:02;16.30;50.50
60495;DHT22;46342;49.046;11.920;2023-04-25T11:42:28;16.30;50.40
60495;DHT22;46342;49.046;11.920;2023-04-25T11:44:55;16.40;50.30
60495;DHT22;46342;49.046;11.920;2023-04-25T11:47:30;16.40;50.30
60495;DHT22;46342;49.046;11.920;2023-04-25T11:49:58;16.50;49.20
60495;DHT22;46342;49.046;11.920;2023-04-25T11:52:34;16.60;49.60
60495;DHT22;46342;49.046;11.920;2023-04-25T11:55:00;16.50;49.40
60495;DHT22;46342;49.046;11.920;2023-04-25T11:57:25;16.50;49.30
60495;DHT22;46342;49.046;11.920;2023-04-25T11:59:51;16.50;49.30
60495;DHT22;46342;49.046;11.920;2023-04-25T12:02:26;16.60;49.30
60495;DHT22;46342;49.046;11.920;2023-04-25T12:04:52;16.60;48.50
60495;DHT22;46342;49.046;11.920;2023-04-25T12:07:17;16.60;49.50
60495;DHT22;46342;49.046;11.920;2023-04-25T12:09:51;16.70;49.40
60495;DHT22;46342;49.046;11.920;2023-04-25T12:12:18;16.80;48.40
60495;DHT22;46342;49.046;11.920;2023-04-25T12:14:46;16.80;48.80
60495;DHT22;46342;49.046;11.920;2023-04-25T12:17:14;16.90;48.60
60495;DHT22;46342;49.046;11.920;2023-04-25T12:19:39;16.80;48.60
60495;DHT22;46342;49.046;11.920;2023-04-25T12:22:20;16.90;48.20
60495;DHT22;46342;49.046;11.920;2023-04-25T12:24:46;16.80;46.90
60495;DHT22;46342;49.046;11.920;2023-04-25T12:27:14;16.80;47.90
60495;DHT22;46342;49.046;11.920;2023-04-25T12:29:51;16.80;47.40
60495;DHT22;46342;49.046;11.920;2023-04-25T12:32:17;16.80;47.00
60495;DHT22;46342;49.046;11.920;2023-04-25T12:34:43;16.70;47.20
60495;DHT22;46342;49.046;11.920;2023-04-25T12:37:09;16.70;47.20
60495;DHT22;46342;49.046;11.920;2023-04-25T12:39:35;16.70;47.30
60495;DHT22;46342;49.046;11.920;2023-04-25T12:42:00;16.70;47.40
60495;DHT22;46342;49.046;11.920;2023-04-25T12:44:26;16.70;47.40
60495;DHT22;46342;49.046;11.920;2023-04-25T12:46:52;16.70;47.40
60495;DHT22;46342;49.046;11.920;2023-04-25T12:49:18;16.70;47.40
60495;DHT22;46342;49.046;11.920;2023-04-25T12:51:44;16.80;47.40
60495;DHT22;46342;49.046;11.920;2023-04-25T12:54:09;16.80;47.20
60495;DHT22;46342;49.046;11.920;2023-04-25T12:56:35;16.90;47.90
60495;DHT22;46342;49.046;11.920;2023-04-25T12:59:01;16.80;47.00
60495;DHT22;46342;49.046;11.920;2023-04-25T13:01:28;16.80;46.90
60495;DHT22;46342;49.046;11.920;2023-04-25T13:03:54;16.70;46.90
60495;DHT22;46342;49.046;11.920;2023-04-25T13:06:21;16.70;46.80
60495;DHT22;46342;49.046;11.920;2023-04-25T13:08:47;16.70;47.30
60495;DHT22;46342;49.046;11.920;2023-04-25T13:11:13;16.70;47.40
60495;DHT22;46342;49.046;11.920;2023-04-25T13:13:40;16.60;46.90
60495;DHT22;46342;49.046;11.920;2023-04-25T13:16:06;16.60;47.00
60495;DHT22;46342;49.046;11.920;2023-04-25T13:18:32;16.60;47.10
60495;DHT22;46342;49.046;11.920;2023-04-25T13:20:59;16.60;47.10
60495;DHT22;46342;49.046;11.920;2023-04-25T13:23:26;16.60;46.80
60495;DHT22;46342;49.046;11.920;2023-04-25T13:25:52;16.60;46.60
60495;DHT22;46342;49.046;11.920;2023-04-25T13:28:18;16.50;46.40
60495;DHT22;46342;49.046;11.920;2023-04-25T13:30:44;16.50;46.50
60495;DHT22;46342;49.046;11.920;2023-04-25T13:33:11;16.40;46.30
60495;DHT22;46342;49.046;11.920;2023-04-25T13:35:37;16.30;46.40
60495;DHT22;46342;49.046;11.920;2023-04-25T13:38:03;16.30;46.30
60495;DHT22;46342;49.046;11.920;2023-04-25T13:40:29;16.20;46.30
60495;DHT22;46342;49.046;11.920;2023-04-25T13:42:55;16.20;46.50
60495;DHT22;46342;49.046;11.920;2023-04-25T13:45:21;16.10;46.50
60495;DHT22;46342;49.046;11.920;2023-04-25T13:47:47;16.10;46.50
60495;DHT22;46342;49.046;11.920;2023-04-25T13:50:13;16.10;46.50
60495;DHT22;46342;49.046;11.920;2023-04-25T13:52:39;16.00;46.50
60495;DHT22;46342;49.046;11.920;2023-04-25T13:55:05;16.00;46.40
60495;DHT22;46342;49.046;11.920;2023-04-25T13:57:32;16.00;46.40
60495;DHT22;46342;49.046;11.920;2023-04-25T13:59:58;15.90;46.40
60495;DHT22;46342;49.046;11.920;2023-04-25T14:02:25;15.90;46.40
60495;DHT22;46342;49.046;11.920;2023-04-25T14:04:51;16.00;46.50
60495;DHT22;46342;49.046;11.920;2023-04-25T14:07:16;15.90;46.40
60495;DHT22;46342;49.046;11.920;2023-04-25T14:09:43;15.90;46.30
60495;DHT22;46342;49.046;11.920;2023-04-25T14:12:09;15.80;46.80
60495;DHT22;46342;49.046;11.920;2023-04-25T14:14:34;15.80;46.20
60495;DHT22;46342;49.046;11.920;2023-04-25T14:17:00;15.90;46.40
60495;DHT22;46342;49.046;11.920;2023-04-25T14:19:26;15.90;46.50
60495;DHT22;46342;49.046;11.920;2023-04-25T14:21:51;16.10;46.60
60495;DHT22;46342;49.046;11.920;2023-04-25T14:24:17;16.00;46.40
60495;DHT22;46342;49.046;11.920;2023-04-25T14:26:43;16.00;46.40
60495;DHT22;46342;49.046;11.920;2023-04-25T14:29:09;16.00;46.20
60495;DHT22;46342;49.046;11.920;2023-04-25T14:31:37;16.00;46.60
60495;DHT22;46342;49.046;11.920;2023-04-25T14:34:05;16.00;45.90
60495;DHT22;46342;49.046;11.920;2023-04-25T14:36:31;16.00;45.80
60495;DHT22;46342;49.046;11.920;2023-04-25T14:38:57;16.00;45.60
60495;DHT22;46342;49.046;11.920;2023-04-25T14:41:24;15.90;45.50
60495;DHT22;46342;49.046;11.920;2023-04-25T14:43:50;15.90;45.40
60495;DHT22;46342;49.046;11.920;2023-04-25T14:46:16;15.80;45.20
60495;DHT22;46342;49.046;11.920;2023-04-25T14:48:42;15.80;45.20
60495;DHT22;46342;49.046;11.920;2023-04-25T14:51:07;15.60;45.10
60495;DHT22;46342;49.046;11.920;2023-04-25T14:53:33;15.60;45.00
60495;DHT22;46342;49.046;11.920;2023-04-25T14:55:59;15.50;45.00
60495;DHT22;46342;49.046;11.920;2023-04-25T14:58:24;15.50;45.00
60495;DHT22;46342;49.046;11.920;2023-04-25T15:00:50;15.40;45.50
60495;DHT22;46342;49.046;11.920;2023-04-25T15:03:16;15.40;45.10
60495;DHT22;46342;49.046;11.920;2023-04-25T15:05:43;15.40;45.20
60495;DHT22;46342;49.046;11.920;2023-04-25T15:08:08;15.40;45.30
60495;DHT22;46342;49.046;11.920;2023-04-25T15:10:34;15.40;45.30
60495;DHT22;46342;49.046;11.920;2023-04-25T15:13:00;15.40;45.40
60495;DHT22;46342;49.046;11.920;2023-04-25T15:15:26;15.40;45.40
60495;DHT22;46342;49.046;11.920;2023-04-25T15:17:52;15.40;45.30